Time;durP1;ratioP1;P1;durP2;ratioP2;P2;SDS_P1;SDS_P2;PMS_P1;PMS_P2;Temp;Humidity;BMP_temperature;BMP_pressure;BME280_temperature;BME280_humidity;BME280_pressure;Samples;Min_cycle;Max_cycle;Signal;HPM_P1;HPM_P2
2024/01/10 00:01:05;;;;;;;54.80;22.48;;;-6.90;99.90;;;;;;4984291;28;20050;-78
2024/01/10 00:03:54;;;;;;;48.67;21.73;;;-6.80;99.90;;;;;;4981115;28;20184;-77
2024/01/10 00:06:45;;;;;;;49.63;22.05;;;-6.80;99.90;;;;;;4985087;28;20039;-76
2024/01/10 00:09:33;;;;;;;59.33;22.88;;;-6.80;99.90;;;;;;4986503;28;20056;-78
2024/01/10 00:12:23;;;;;;;51.92;23.67;;;-6.80;1.00;;;;;;4977573;28;20503;-77
2024/01/10 00:15:16;;;;;;;53.85;23.05;;;-6.80;38.80;;;;;;4978327;28;20049;-77
2024/01/10 00:18:04;;;;;;;52.22;23.33;;;-6.70;1.00;;;;;;4971122;28;20499;-76
2024/01/10 00:20:54;;;;;;;54.72;23.77;;;-6.70;1.00;;;;;;4982803;28;20046;-75
2024/01/10 00:23:42;;;;;;;55.60;24.35;;;-6.70;1.00;;;;;;4987292;28;20076;-77
2024/01/10 00:26:31;;;;;;;59.10;24.80;;;-6.70;17.90;;;;;;4977724;28;20042;-76
2024/01/10 00:29:23;;;;;;;50.38;24.52;;;-6.70;99.90;;;;;;4985916;28;20080;-77
2024/01/10 00:32:10;;;;;;;62.17;24.95;;;-6.60;99.90;;;;;;4981335;28;20486;-78
2024/01/10 00:34:58;;;;;;;54.08;23.63;;;-6.60;99.90;;;;;;4998407;28;21172;-78
2024/01/10 00:37:49;;;;;;;53.78;23.70;;;-6.60;99.90;;;;;;4977599;28;20053;-77
2024/01/10 00:40:37;;;;;;;52.53;23.77;;;-6.50;99.90;;;;;;4981883;28;20038;-78
2024/01/10 00:43:27;;;;;;;55.33;25.35;;;-6.50;99.90;;;;;;4990037;28;20464;-76
2024/01/10 00:46:14;;;;;;;55.83;24.48;;;-6.50;99.90;;;;;;4997263;28;20042;-77
2024/01/10 00:49:02;;;;;;;55.92;24.00;;;-6.50;99.90;;;;;;4980589;28;20200;-76
2024/01/10 00:51:51;;;;;;;52.53;23.15;;;-6.40;99.90;;;;;;4970682;28;20042;-74
2024/01/10 00:54:38;;;;;;;51.38;22.83;;;-6.40;99.90;;;;;;4971253;28;20058;-75
2024/01/10 00:57:27;;;;;;;58.40;23.80;;;-6.40;99.90;;;;;;4983115;28;20066;-79
2024/01/10 01:00:15;;;;;;;51.72;22.52;;;-6.30;99.90;;;;;;4983790;28;20116;-77
2024/01/10 01:03:02;;;;;;;53.22;23.33;;;-6.30;99.90;;;;;;4984038;28;20046;-77
2024/01/10 01:05:50;;;;;;;52.75;23.13;;;-6.30;99.90;;;;;;5004570;28;20030;-77
2024/01/10 01:08:40;;;;;;;51.10;23.55;;;-6.30;99.90;;;;;;4984962;28;20399;-76
2024/01/10 01:11:27;;;;;;;45.67;21.17;;;-6.20;8.60;;;;;;5003882;28;20046;-76
2024/01/10 01:14:14;;;;;;;45.75;20.83;;;-6.10;99.90;;;;;;4987616;28;20078;-78
2024/01/10 01:17:04;;;;;;;49.28;20.92;;;-6.00;1.00;;;;;;4977690;28;20038;-76
2024/01/10 01:19:51;;;;;;;47.45;20.10;;;-5.90;1.00;;;;;;4982115;28;20054;-75
2024/01/10 01:22:40;;;;;;;43.13;19.48;;;-5.80;99.90;;;;;;4979412;28;20050;-78
2024/01/10 01:25:28;;;;;;;37.72;17.23;;;-5.80;45.20;;;;;;4982367;28;20043;-77
2024/01/10 01:28:17;;;;;;;43.17;19.65;;;-5.80;1.00;;;;;;4985915;28;20835;-77
2024/01/10 01:31:04;;;;;;;39.05;18.15;;;-5.70;1.00;;;;;;4975696;28;20046;-78
2024/01/10 01:33:52;;;;;;;39.80;18.30;;;-5.70;1.00;;;;;;4974961;28;20069;-75
2024/01/10 01:36:39;;;;;;;42.05;18.67;;;-5.70;1.00;;;;;;4981659;28;20524;-76
2024/01/10 01:39:27;;;;;;;43.13;18.73;;;-5.70;1.00;;;;;;4985196;28;20042;-76
2024/01/10 01:42:16;;;;;;;41.88;18.77;;;-5.60;1.00;;;;;;4958044;28;20065;-75
2024/01/10 01:45:04;;;;;;;40.33;18.45;;;-5.50;99.90;;;;;;4975436;28;20042;-77
2024/01/10 01:47:52;;;;;;;39.58;17.92;;;-5.50;99.90;;;;;;4984302;28;20045;-77
2024/01/10 01:50:41;;;;;;;39.30;17.52;;;-5.50;99.90;;;;;;4977742;28;20049;-77
2024/01/10 01:53:30;;;;;;;37.85;18.50;;;-5.50;99.90;;;;;;4978339;28;20069;-76
2024/01/10 01:56:17;;;;;;;33.22;16.77;;;-5.50;53.30;;;;;;4983059;28;20046;-76
2024/01/10 01:59:05;;;;;;;32.90;16.00;;;-5.50;7.30;;;;;;4978347;28;20050;-76
2024/01/10 02:01:55;;;;;;;42.63;18.00;;;-5.50;16.20;;;;;;4980898;28;20064;-77
2024/01/10 02:04:43;;;;;;;38.65;17.08;;;-5.50;1.00;;;;;;4971125;28;20131;-76
2024/01/10 02:07:31;;;;;;;40.72;17.48;;;-5.50;1.00;;;;;;4976912;28;20034;-76
2024/01/10 02:10:19;;;;;;;42.25;19.95;;;-5.50;44.80;;;;;;4974552;28;20050;-76
2024/01/10 02:13:09;;;;;;;39.45;17.70;;;-5.50;99.90;;;;;;4987628;28;20119;-77
2024/01/10 02:15:57;;;;;;;39.63;17.70;;;-5.60;99.90;;;;;;4993823;28;20117;-78
2024/01/10 02:18:45;;;;;;;33.88;16.92;;;-5.60;99.90;;;;;;4972696;28;20054;-77
2024/01/10 02:21:33;;;;;;;38.55;17.27;;;-5.60;99.90;;;;;;4992634;28;20074;-77
2024/01/10 02:24:21;;;;;;;35.63;16.95;;;-5.50;99.90;;;;;;4985113;28;20042;-77
2024/01/10 02:27:10;;;;;;;31.58;16.48;;;-5.50;1.00;;;;;;4978152;28;20116;-77
2024/01/10 02:30:01;;;;;;;33.65;16.20;;;-5.40;1.00;;;;;;4967099;28;20039;-77
2024/01/10 02:32:49;;;;;;;37.10;16.55;;;-5.40;1.00;;;;;;4987331;28;20141;-77
2024/01/10 02:35:36;;;;;;;30.55;15.18;;;-5.40;1.00;;;;;;4973601;28;20054;-75
2024/01/10 02:38:24;;;;;;;39.10;17.17;;;-5.40;99.90;;;;;;4959828;28;20133;-78
2024/01/10 02:41:12;;;;;;;35.83;15.85;;;-5.40;99.90;;;;;;4967389;28;20136;-77
2024/01/10 02:43:59;;;;;;;33.65;14.68;;;-5.40;99.90;;;;;;4972557;28;20083;-77
2024/01/10 02:46:48;;;;;;;34.67;15.30;;;-5.40;1.00;;;;;;4976262;28;20152;-78
2024/01/10 02:49:35;;;;;;;36.90;16.63;;;-5.40;99.90;;;;;;4978128;28;20129;-77
2024/01/10 02:52:24;;;;;;;35.55;16.00;;;-5.30;99.90;;;;;;4975359;28;20049;-78
2024/01/10 02:55:11;;;;;;;38.67;16.65;;;-5.30;99.90;;;;;;4960243;28;20043;-76
2024/01/10 02:57:59;;;;;;;42.47;17.05;;;-5.30;99.90;;;;;;4967560;28;20057;-77
2024/01/10 03:00:48;;;;;;;44.00;18.50;;;-5.20;99.90;;;;;;4968334;28;20105;-77
2024/01/10 03:03:36;;;;;;;34.03;16.33;;;-5.20;99.90;;;;;;4983649;28;20408;-77
2024/01/10 03:06:23;;;;;;;34.63;16.75;;;-5.20;99.90;;;;;;4965963;28;20042;-77
2024/01/10 03:09:11;;;;;;;41.55;16.60;;;-5.20;99.90;;;;;;4986109;28;20467;-78
2024/01/10 03:12:00;;;;;;;35.75;16.83;;;-5.20;99.90;;;;;;4997710;28;20479;-77
2024/01/10 03:14:49;;;;;;;37.70;18.00;;;-5.20;99.90;;;;;;4973416;28;20085;-75
2024/01/10 03:17:36;;;;;;;35.92;16.52;;;-5.20;99.90;;;;;;4981367;28;20046;-78
2024/01/10 03:20:29;;;;;;;37.83;17.23;;;-5.20;99.90;;;;;;4960220;28;20162;-77
2024/01/10 03:23:18;;;;;;;36.40;16.70;;;-5.20;99.90;;;;;;4967038;28;20542;-78
2024/01/10 03:26:06;;;;;;;33.78;16.45;;;-5.20;99.90;;;;;;4977375;28;20051;-78
2024/01/10 03:28:56;;;;;;;31.55;15.55;;;-5.30;99.90;;;;;;4975498;28;20459;-77
2024/01/10 03:31:45;;;;;;;35.10;15.93;;;-5.30;99.90;;;;;;4975963;28;20457;-78
2024/01/10 03:34:32;;;;;;;35.53;16.23;;;-5.40;99.90;;;;;;4989381;28;20113;-75
2024/01/10 03:37:19;;;;;;;33.20;15.98;;;-5.40;99.90;;;;;;5008722;28;20062;-74
2024/01/10 03:40:07;;;;;;;37.47;17.05;;;-5.50;99.90;;;;;;5001840;28;20042;-76
2024/01/10 03:42:54;;;;;;;37.85;15.68;;;-5.60;99.90;;;;;;4982382;28;20099;-75
2024/01/10 03:45:42;;;;;;;32.30;16.05;;;-5.70;99.90;;;;;;4985389;28;20087;-77
2024/01/10 03:48:31;;;;;;;36.53;16.85;;;-5.70;99.90;;;;;;4995965;28;20035;-77
2024/01/10 03:51:19;;;;;;;31.88;15.52;;;-5.80;99.90;;;;;;4979822;28;20415;-74
2024/01/10 03:54:08;;;;;;;39.15;17.85;;;-5.80;99.90;;;;;;4971859;28;20127;-77
2024/01/10 03:56:55;;;;;;;37.72;17.25;;;-5.80;99.90;;;;;;4960672;28;20066;-74
2024/01/10 03:59:43;;;;;;;37.33;17.25;;;-5.80;99.90;;;;;;4973090;28;20049;-75
2024/01/10 04:02:30;;;;;;;35.40;15.98;;;-5.80;99.90;;;;;;4992739;28;20053;-77
2024/01/10 04:05:18;;;;;;;39.80;17.17;;;-5.70;99.90;;;;;;4991617;28;20034;-74
2024/01/10 04:08:07;;;;;;;36.03;16.70;;;-5.70;1.00;;;;;;5004156;28;20067;-76
2024/01/10 04:10:55;;;;;;;38.78;17.77;;;-5.60;1.00;;;;;;5004912;28;20112;-76
2024/01/10 04:13:44;;;;;;;41.55;17.20;;;-5.60;1.00;;;;;;4983951;28;20088;-79
2024/01/10 04:16:34;;;;;;;33.58;16.20;;;-5.60;1.00;;;;;;4984541;28;20521;-77
2024/01/10 04:19:24;;;;;;;37.00;17.02;;;-5.50;1.00;;;;;;4978665;28;20557;-76
2024/01/10 04:22:11;;;;;;;36.53;17.00;;;-5.50;99.90;;;;;;4984705;28;20530;-78
2024/01/10 04:25:00;;;;;;;38.78;16.23;;;-5.50;99.90;;;;;;4971441;28;20623;-75
2024/01/10 04:27:50;;;;;;;37.55;18.60;;;-5.50;99.90;;;;;;4964794;28;20039;-77
2024/01/10 04:30:38;;;;;;;41.83;17.48;;;-5.50;99.90;;;;;;4989059;28;20588;-77
2024/01/10 04:33:26;;;;;;;38.50;17.45;;;-5.50;99.90;;;;;;4975531;28;20125;-78
2024/01/10 04:36:13;;;;;;;40.60;17.55;;;-5.50;99.90;;;;;;4980416;28;20627;-76
2024/01/10 04:39:01;;;;;;;41.15;18.20;;;-5.60;99.90;;;;;;4984148;28;20073;-78
2024/01/10 04:41:49;;;;;;;35.85;17.70;;;-5.60;99.90;;;;;;4980699;28;20047;-78
2024/01/10 04:44:37;;;;;;;38.53;18.40;;;-5.60;99.90;;;;;;4977615;28;20047;-77
2024/01/10 04:47:26;;;;;;;40.42;17.88;;;-5.70;99.90;;;;;;4968057;28;20129;-78
2024/01/10 04:50:13;;;;;;;37.80;17.65;;;-5.70;99.90;;;;;;4979562;28;20046;-76
2024/01/10 04:53:01;;;;;;;41.25;17.52;;;-5.80;1.00;;;;;;4997560;28;20125;-77
2024/01/10 04:55:50;;;;;;;38.80;17.95;;;-5.80;1.00;;;;;;4984137;28;20053;-77
2024/01/10 04:58:38;;;;;;;43.10;18.58;;;-5.70;1.00;;;;;;4963373;28;20054;-75
2024/01/10 05:01:26;;;;;;;46.55;18.70;;;-5.80;1.00;;;;;;4968044;28;20058;-79
2024/01/10 05:04:15;;;;;;;37.63;17.40;;;-5.80;1.00;;;;;;4978757;28;20118;-77
2024/01/10 05:07:03;;;;;;;41.67;17.85;;;-5.70;1.00;;;;;;4981624;28;20126;-79
2024/01/10 05:09:52;;;;;;;43.47;19.23;;;-5.80;1.00;;;;;;4987659;28;20065;-78
2024/01/10 05:12:42;;;;;;;38.28;17.58;;;-5.80;1.00;;;;;;4985162;28;20034;-75
2024/01/10 05:15:29;;;;;;;50.72;19.85;;;-5.80;1.00;;;;;;4986757;28;20050;-76
2024/01/10 05:18:18;;;;;;;40.97;18.60;;;-5.90;1.00;;;;;;4983897;28;20050;-76
2024/01/10 05:21:06;;;;;;;45.10;18.50;;;-5.90;1.00;;;;;;4971132;28;20045;-76
2024/01/10 05:23:54;;;;;;;37.63;18.27;;;-6.00;1.00;;;;;;4976187;28;20046;-77
2024/01/10 05:26:42;;;;;;;44.05;18.77;;;-6.10;1.00;;;;;;4977273;28;20042;-78
2024/01/10 05:29:29;;;;;;;48.25;20.08;;;-6.20;1.00;;;;;;4981542;28;20046;-78
2024/01/10 05:32:21;;;;;;;45.20;19.52;;;-6.30;1.00;;;;;;4979832;28;20050;-76
2024/01/10 05:35:10;;;;;;;46.05;19.58;;;-6.30;1.00;;;;;;4975851;28;20047;-77
2024/01/10 05:37:58;;;;;;;48.72;20.02;;;-6.30;21.00;;;;;;4980273;28;20061;-78
2024/01/10 05:40:46;;;;;;;46.60;21.08;;;-6.30;99.90;;;;;;4979305;28;20047;-79
2024/01/10 05:43:38;;;;;;;47.25;19.75;;;-6.30;99.90;;;;;;4980339;28;20435;-78
2024/01/10 05:46:25;;;;;;;46.85;20.80;;;-6.20;99.90;;;;;;4970633;28;20521;-79
2024/01/10 05:49:16;;;;;;;46.13;20.20;;;-6.30;99.90;;;;;;4979345;28;20050;-77
2024/01/10 05:52:05;;;;;;;42.45;19.08;;;-6.40;99.90;;;;;;4967029;28;20047;-76
2024/01/10 05:54:53;;;;;;;45.47;20.05;;;-6.60;1.00;;;;;;4967939;28;20046;-79
2024/01/10 05:57:42;;;;;;;43.25;19.50;;;-6.60;99.90;;;;;;4973312;28;20120;-76
2024/01/10 06:00:37;;;;;;;45.97;19.02;;;-6.70;1.00;;;;;;4986809;28;20044;-78
2024/01/10 06:03:25;;;;;;;47.78;20.15;;;-6.70;99.90;;;;;;4977047;28;20138;-77
2024/01/10 06:06:13;;;;;;;42.78;19.85;;;-6.80;99.90;;;;;;4990375;28;20060;-77
2024/01/10 06:09:02;;;;;;;43.67;20.27;;;-7.00;99.90;;;;;;4981486;28;20042;-78
2024/01/10 06:11:50;;;;;;;43.83;20.00;;;-7.10;29.60;;;;;;4972621;28;20423;-75
2024/01/10 06:14:40;;;;;;;43.25;20.15;;;-7.10;1.00;;;;;;4981102;28;20069;-78
2024/01/10 06:17:30;;;;;;;45.75;21.15;;;-7.20;99.90;;;;;;4982738;28;20042;-77
2024/01/10 06:20:18;;;;;;;54.50;22.23;;;-7.20;1.00;;;;;;4982447;28;20185;-78
2024/01/10 06:23:07;;;;;;;43.85;20.00;;;-7.30;99.90;;;;;;5011529;28;20049;-79
2024/01/10 06:25:55;;;;;;;51.95;21.13;;;-7.30;99.90;;;;;;4973099;28;20602;-78
2024/01/10 06:28:43;;;;;;;48.35;20.58;;;-7.30;99.90;;;;;;4988284;28;20022;-77
2024/01/10 06:31:31;;;;;;;50.33;21.35;;;-7.40;99.90;;;;;;4990072;28;20052;-78
2024/01/10 06:34:22;;;;;;;52.15;22.25;;;-7.40;99.90;;;;;;4967694;28;20531;-78
2024/01/10 06:37:11;;;;;;;49.88;21.17;;;-7.50;1.00;;;;;;4983793;28;22072;-74
2024/01/10 06:40:03;;;;;;;51.47;22.85;;;-7.50;99.90;;;;;;4963335;28;20058;-77
2024/01/10 06:42:55;;;;;;;45.60;21.77;;;-7.50;99.90;;;;;;4977701;28;20142;-79
2024/01/10 06:45:43;;;;;;;54.97;24.23;;;-7.50;1.00;;;;;;4980177;28;20034;-77
2024/01/10 06:48:33;;;;;;;53.10;23.45;;;-7.60;1.00;;;;;;4974655;28;20288;-78
2024/01/10 06:51:23;;;;;;;52.35;24.25;;;-7.70;79.30;;;;;;4990895;28;20383;-78
2024/01/10 06:54:13;;;;;;;58.13;26.05;;;-7.60;99.90;;;;;;4982957;28;20061;-78
2024/01/10 06:57:04;;;;;;;62.90;26.02;;;-7.50;99.90;;;;;;4971174;28;20046;-79
2024/01/10 06:59:57;;;;;;;49.67;23.40;;;-7.40;99.90;;;;;;4967876;28;20055;-79
2024/01/10 07:02:48;;;;;;;55.88;23.50;;;-7.40;99.90;;;;;;4981843;28;20129;-76
2024/01/10 07:05:36;;;;;;;55.03;23.15;;;-7.40;99.90;;;;;;4984000;28;20468;-77
2024/01/10 07:08:26;;;;;;;54.85;23.13;;;-7.50;28.10;;;;;;4976883;28;20043;-76
2024/01/10 07:11:16;;;;;;;61.70;24.45;;;-7.60;99.90;;;;;;4980928;28;20102;-76
2024/01/10 07:14:07;;;;;;;50.72;23.00;;;-7.60;56.00;;;;;;4972260;28;20046;-80
2024/01/10 07:16:56;;;;;;;55.67;24.08;;;-7.70;99.90;;;;;;4988415;28;20048;-77
2024/01/10 07:19:46;;;;;;;49.72;22.38;;;-7.70;99.90;;;;;;4967074;28;20093;-76
2024/01/10 07:22:33;;;;;;;50.15;23.42;;;-7.70;99.90;;;;;;4980644;28;20490;-78
2024/01/10 07:25:24;;;;;;;54.45;24.05;;;-7.70;99.90;;;;;;4978286;28;20046;-79
2024/01/10 07:28:13;;;;;;;55.10;23.57;;;-7.70;99.90;;;;;;4978330;28;20035;-79
2024/01/10 07:31:02;;;;;;;64.47;24.80;;;-7.70;99.90;;;;;;4986338;28;20102;-75
2024/01/10 07:33:50;;;;;;;58.55;25.45;;;-7.60;99.90;;;;;;5008439;28;20026;-76
2024/01/10 07:36:42;;;;;;;57.65;25.55;;;-7.30;1.00;;;;;;5006237;28;20117;-77
2024/01/10 07:39:30;;;;;;;67.45;27.90;;;-7.20;1.00;;;;;;4983641;28;20106;-78
2024/01/10 07:42:18;;;;;;;59.40;26.63;;;-7.20;1.00;;;;;;4993674;28;20462;-77
2024/01/10 07:45:07;;;;;;;89.78;40.15;;;-7.10;1.00;;;;;;5004303;28;20057;-79
2024/01/10 07:47:54;;;;;;;82.25;37.88;;;-7.00;1.00;;;;;;4989033;28;20042;-78
2024/01/10 07:50:42;;;;;;;90.13;37.90;;;-6.90;99.90;;;;;;4979562;28;20047;-77
2024/01/10 07:53:30;;;;;;;76.63;33.08;;;-6.90;99.90;;;;;;4972260;28;20120;-79
2024/01/10 07:56:19;;;;;;;73.93;30.17;;;-6.80;99.90;;;;;;4972199;28;20411;-79
2024/01/10 07:59:08;;;;;;;64.70;29.08;;;-6.70;99.90;;;;;;4980667;28;20046;-75
2024/01/10 08:02:00;;;;;;;66.30;29.65;;;-6.60;99.90;;;;;;4978858;28;20199;-80
2024/01/10 08:04:48;;;;;;;70.25;30.80;;;-6.50;99.90;;;;;;4977560;28;20043;-81
2024/01/10 08:07:39;;;;;;;67.38;30.02;;;-6.30;6.10;;;;;;4991575;28;20038;-79
2024/01/10 08:10:29;;;;;;;67.68;30.55;;;-6.20;1.00;;;;;;4989401;28;20066;-80
2024/01/10 08:13:18;;;;;;;66.10;28.73;;;-5.90;99.90;;;;;;4984313;28;20089;-79
2024/01/10 08:16:08;;;;;;;68.03;30.98;;;-5.80;99.90;;;;;;4985568;28;20401;-80
2024/01/10 08:18:56;;;;;;;71.95;28.65;;;-5.60;99.90;;;;;;4980794;28;20042;-76
2024/01/10 08:21:44;;;;;;;74.78;29.02;;;-5.40;99.90;;;;;;4990552;28;20050;-78
2024/01/10 08:24:35;;;;;;;67.97;29.67;;;-5.30;29.00;;;;;;4991366;28;20172;-75
2024/01/10 08:27:24;;;;;;;59.90;27.05;;;-5.20;1.00;;;;;;4972517;28;20587;-74
2024/01/10 08:30:12;;;;;;;61.97;28.20;;;-5.10;99.90;;;;;;4986448;28;20048;-78
2024/01/10 08:33:00;;;;;;;58.67;26.35;;;-5.00;39.90;;;;;;4993903;28;20042;-79
2024/01/10 08:35:48;;;;;;;56.10;26.65;;;-4.90;99.90;;;;;;4990506;28;20081;-77
2024/01/10 08:38:39;;;;;;;52.88;25.15;;;-4.70;99.90;;;;;;4991744;28;20117;-80
2024/01/10 08:41:32;;;;;;;51.75;23.80;;;-4.50;5.80;;;;;;4991381;28;20034;-80
2024/01/10 08:44:20;;;;;;;56.28;23.80;;;-4.30;1.00;;;;;;4983823;28;20440;-80
2024/01/10 08:47:08;;;;;;;48.45;23.13;;;-4.00;99.90;;;;;;4983791;28;20050;-80
2024/01/10 08:49:58;;;;;;;52.03;24.95;;;-3.80;99.90;;;;;;4978695;28;20369;-78
2024/01/10 08:52:46;;;;;;;52.28;23.48;;;-3.70;27.00;;;;;;4987681;28;20054;-78
2024/01/10 08:55:36;;;;;;;49.83;21.58;;;-3.70;1.00;;;;;;4992789;28;20400;-77
2024/01/10 08:58:24;;;;;;;49.25;23.30;;;-3.50;99.90;;;;;;4994588;28;20066;-74
2024/01/10 09:01:13;;;;;;;49.55;22.35;;;-3.30;99.90;;;;;;4993568;28;20106;-81
2024/01/10 09:04:01;;;;;;;44.58;21.98;;;-3.20;99.90;;;;;;4980740;28;20094;-74
2024/01/10 09:06:50;;;;;;;47.15;21.80;;;-3.20;99.90;;;;;;5007712;28;20034;-75
2024/01/10 09:09:42;;;;;;;35.88;17.35;;;-3.20;99.90;;;;;;4997486;28;20133;-79
2024/01/10 09:12:31;;;;;;;50.40;23.83;;;-3.30;99.90;;;;;;4979273;28;20136;-78
2024/01/10 09:15:20;;;;;;;56.60;26.20;;;-3.40;99.90;;;;;;4987130;28;20038;-78
2024/01/10 09:18:11;;;;;;;51.13;25.55;;;-3.40;99.90;;;;;;4995715;28;20422;-78
2024/01/10 09:21:04;;;;;;;63.53;26.48;;;-3.40;99.90;;;;;;4973759;28;20061;-78
2024/01/10 09:23:51;;;;;;;58.53;28.55;;;-3.20;99.90;;;;;;4989249;28;20053;-79
2024/01/10 09:26:38;;;;;;;58.70;27.63;;;-3.00;99.90;;;;;;4980646;28;20038;-80
2024/01/10 09:29:34;;;;;;;62.15;27.73;;;-2.80;88.30;;;;;;4981017;28;20042;-79
2024/01/10 09:32:26;;;;;;;61.17;27.85;;;-2.60;64.10;;;;;;4980734;28;20073;-78
2024/01/10 09:35:18;;;;;;;54.65;26.27;;;-2.20;32.90;;;;;;4978205;28;20065;-79
2024/01/10 09:38:06;;;;;;;56.85;27.55;;;-2.00;1.00;;;;;;4985636;28;20057;-79
2024/01/10 09:41:02;;;;;;;56.53;27.23;;;-1.90;1.00;;;;;;4977196;28;20047;-81
2024/01/10 09:43:53;;;;;;;58.63;26.40;;;-1.70;1.00;;;;;;4936873;28;1216720;-79
2024/01/10 09:46:52;;;;;;;49.15;25.65;;;-1.50;1.00;;;;;;4980201;28;20054;-79
2024/01/10 09:49:44;;;;;;;53.38;25.55;;;-1.00;1.00;;;;;;4981262;28;20517;-80
2024/01/10 09:52:40;;;;;;;49.28;26.00;;;-0.20;99.90;;;;;;4975446;28;20093;-81
2024/01/10 09:55:35;;;;;;;48.00;25.58;;;0.70;99.90;;;;;;4968275;28;20591;-80
2024/01/10 09:58:25;;;;;;;49.90;25.15;;;1.40;99.90;;;;;;4993072;28;20203;-80
2024/01/10 10:01:13;;;;;;;50.22;26.58;;;1.70;99.90;;;;;;4983136;28;20050;-80
2024/01/10 10:04:02;;;;;;;47.17;24.52;;;1.30;99.90;;;;;;4995916;28;20101;-78
2024/01/10 10:07:01;;;;;;;50.72;24.13;;;1.90;99.90;;;;;;4972143;28;20621;-77
2024/01/10 10:09:53;;;;;;;46.00;23.02;;;2.50;99.90;;;;;;4983407;28;20043;-76
2024/01/10 10:12:52;;;;;;;43.28;24.38;;;3.40;99.90;;;;;;4989236;28;20047;-77
2024/01/10 10:15:42;;;;;;;42.50;23.88;;;3.80;99.90;;;;;;4991639;28;20050;-78
2024/01/10 10:18:32;;;;;;;51.20;24.70;;;3.30;99.90;;;;;;4979378;28;20056;-76
2024/01/10 10:21:20;;;;;;;40.03;21.40;;;3.00;99.90;;;;;;4984002;28;20069;-80
2024/01/10 10:24:14;;;;;;;45.50;23.08;;;3.80;99.90;;;;;;4991857;28;20054;-78
2024/01/10 10:27:12;;;;;;;46.38;23.70;;;4.10;99.90;;;;;;4990518;28;20038;-81
2024/01/10 10:30:04;;;;;;;40.85;23.35;;;4.30;99.90;;;;;;4978333;28;20049;-81
2024/01/10 10:33:08;;;;;;;38.83;23.05;;;3.80;99.90;;;;;;4991115;28;20157;-81
2024/01/10 10:36:03;;;;;;;41.80;22.63;;;4.20;99.90;;;;;;4978719;28;20479;-79
2024/01/10 10:39:13;;;;;;;;;;;;;;;;;;;;;
2024/01/10 10:42:15;;;;;;;40.42;21.60;;;5.10;99.30;;;;;;4992158;28;20730;-81
2024/01/10 10:45:14;;;;;;;41.42;23.15;;;5.10;94.90;;;;;;4977837;28;20146;-77
2024/01/10 10:48:11;;;;;;;44.10;23.23;;;4.60;75.70;;;;;;4991427;28;20058;-82
2024/01/10 10:51:39;;;;;;;39.35;22.38;;;4.00;80.00;;;;;;4999453;28;20552;-81
2024/01/10 10:54:32;;;;;;;41.60;22.60;;;4.70;84.20;;;;;;4962676;28;20054;-80
2024/01/10 10:57:20;;;;;;;43.45;22.23;;;5.50;87.00;;;;;;4996667;28;20136;-79
2024/01/10 11:00:10;;;;;;;39.67;22.80;;;5.70;80.50;;;;;;4982290;28;20133;-77
2024/01/10 11:03:05;;;;;;;38.13;22.50;;;6.00;84.30;;;;;;4982060;28;20049;-79
2024/01/10 11:05:53;;;;;;;42.45;22.00;;;6.50;83.70;;;;;;4971427;28;20084;-82
2024/01/10 11:08:57;;;;;;;38.90;22.02;;;6.40;85.70;;;;;;4977039;28;20134;-79
2024/01/10 11:12:08;;;;;;;35.17;21.13;;;7.40;85.90;;;;;;4990077;28;20054;-80
2024/01/10 11:15:24;;;;;;;34.90;20.70;;;7.70;57.10;;;;;;4988930;28;20588;-82
2024/01/10 11:18:50;;;;;;;36.38;21.77;;;8.00;57.60;;;;;;4988450;28;20073;-81
2024/01/10 11:22:28;;;;;;;33.90;20.50;;;8.40;70.10;;;;;;4962937;28;20081;-81
2024/01/10 11:25:29;;;;;;;31.27;19.77;;;9.00;50.90;;;;;;4952755;28;20062;-81
2024/01/10 11:28:17;;;;;;;32.95;20.58;;;9.20;81.80;;;;;;4976969;28;20535;-81
2024/01/10 11:31:07;;;;;;;33.65;21.58;;;8.80;57.00;;;;;;4981158;28;20503;-80
2024/01/10 11:34:02;;;;;;;39.33;22.38;;;7.50;52.70;;;;;;5000393;28;20031;-77
2024/01/10 11:37:09;;;;;;;33.38;20.55;;;7.70;51.50;;;;;;4990841;28;20046;-81
2024/01/10 11:39:56;;;;;;;37.22;22.40;;;8.00;53.20;;;;;;5005460;28;20050;-80
2024/01/10 11:42:47;;;;;;;39.63;22.52;;;7.80;49.50;;;;;;4991277;28;20166;-81
2024/01/10 11:45:34;;;;;;;40.65;22.35;;;7.70;48.00;;;;;;4979045;28;20061;-82
2024/01/10 11:48:28;;;;;;;37.65;22.17;;;7.50;45.60;;;;;;4983380;28;20057;-79
2024/01/10 11:51:16;;;;;;;34.33;21.13;;;7.50;43.20;;;;;;4985385;28;20042;-80
2024/01/10 11:54:05;;;;;;;35.40;21.92;;;8.10;61.20;;;;;;4969274;28;20043;-81
2024/01/10 11:56:54;;;;;;;37.47;21.15;;;7.90;50.30;;;;;;4963949;28;20053;-81
2024/01/10 11:59:45;;;;;;;34.90;20.13;;;7.50;48.90;;;;;;4974930;28;20046;-81
2024/01/10 12:03:12;;;;;;;36.78;20.52;;;8.00;52.10;;;;;;4981550;28;20511;-81
2024/01/10 12:06:07;;;;;;;40.17;20.58;;;9.30;42.10;;;;;;4985232;28;20488;-83
2024/01/10 12:08:59;;;;;;;37.03;21.90;;;8.60;33.90;;;;;;4988360;28;20038;-82
2024/01/10 12:11:50;;;;;;;35.08;20.83;;;7.30;27.60;;;;;;4981573;28;20046;-82
2024/01/10 12:14:38;;;;;;;39.60;22.20;;;7.60;25.40;;;;;;4983107;28;20038;-84
2024/01/10 12:17:29;;;;;;;36.53;20.95;;;6.80;25.00;;;;;;4976507;28;20490;-80
2024/01/10 12:20:19;;;;;;;36.15;21.58;;;7.00;29.20;;;;;;4985150;28;20050;-81
2024/01/10 12:23:08;;;;;;;36.63;21.20;;;7.50;23.10;;;;;;4984578;28;20086;-81
2024/01/10 12:25:59;;;;;;;36.53;20.63;;;7.70;24.70;;;;;;4983315;28;20122;-81
2024/01/10 12:28:56;;;;;;;35.17;20.60;;;7.40;21.70;;;;;;4985820;28;20053;-83
2024/01/10 12:31:45;;;;;;;35.55;21.02;;;8.20;21.60;;;;;;4987646;28;20043;-82
2024/01/10 12:34:38;;;;;;;33.08;20.60;;;7.80;20.70;;;;;;4989138;28;20051;-83
2024/01/10 12:37:25;;;;;;;32.58;20.23;;;7.90;25.10;;;;;;4993124;28;20070;-81
2024/01/10 12:40:13;;;;;;;35.90;20.98;;;8.50;21.80;;;;;;4987895;28;20050;-83
2024/01/10 12:43:10;;;;;;;33.53;20.55;;;8.20;21.90;;;;;;4983223;28;20054;-79
2024/01/10 12:46:16;;;;;;;36.60;21.30;;;8.00;25.00;;;;;;4990172;28;20381;-80
2024/01/10 12:49:07;;;;;;;35.70;20.23;;;8.30;23.20;;;;;;4975049;28;20132;-84
2024/01/10 12:51:55;;;;;;;33.47;20.00;;;8.90;24.40;;;;;;4980856;28;20427;-79
2024/01/10 12:54:43;;;;;;;30.08;18.90;;;9.30;23.00;;;;;;4967510;28;20845;-77
2024/01/10 12:57:33;;;;;;;28.88;19.17;;;9.90;23.60;;;;;;4988380;28;20050;-82
2024/01/10 13:00:25;;;;;;;31.80;20.08;;;10.40;23.30;;;;;;4982462;28;20046;-80
2024/01/10 13:03:23;;;;;;;33.80;19.35;;;11.10;22.40;;;;;;4989627;28;20126;-82
2024/01/10 13:06:11;;;;;;;32.67;19.92;;;10.90;21.40;;;;;;4983727;28;20042;-84
2024/01/10 13:09:00;;;;;;;33.63;20.85;;;11.00;25.30;;;;;;4982599;28;20062;-82
2024/01/10 13:11:50;;;;;;;28.70;19.05;;;11.00;24.30;;;;;;4980928;28;20193;-84
2024/01/10 13:14:48;;;;;;;30.88;19.92;;;10.80;21.40;;;;;;4984836;28;20046;-81
2024/01/10 13:17:39;;;;;;;31.67;19.42;;;11.30;21.60;;;;;;4980464;28;20047;-82
2024/01/10 13:20:28;;;;;;;29.08;18.73;;;10.90;19.70;;;;;;4980967;28;20109;-81
2024/01/10 13:23:18;;;;;;;31.42;19.30;;;10.60;24.00;;;;;;4975808;28;20054;-80
2024/01/10 13:26:07;;;;;;;30.83;19.02;;;10.10;22.30;;;;;;4989276;28;20057;-82
2024/01/10 13:28:54;;;;;;;35.55;19.77;;;10.10;20.30;;;;;;4983568;28;20046;-82
2024/01/10 13:31:42;;;;;;;31.33;20.25;;;9.30;19.80;;;;;;4979834;28;20538;-79
2024/01/10 13:34:32;;;;;;;31.30;19.73;;;9.70;17.20;;;;;;4977466;28;20499;-83
2024/01/10 13:37:28;;;;;;;32.17;19.92;;;9.50;18.10;;;;;;4984753;28;20047;-80
2024/01/10 13:40:23;;;;;;;33.85;19.63;;;9.60;15.30;;;;;;4980268;28;20096;-80
2024/01/10 13:43:11;;;;;;;31.20;19.75;;;9.20;15.80;;;;;;4980008;28;20085;-81
2024/01/10 13:46:04;;;;;;;29.85;19.58;;;9.50;14.80;;;;;;4997887;28;20038;-76
2024/01/10 13:48:55;;;;;;;35.28;21.40;;;9.60;15.60;;;;;;4991092;28;20038;-79
2024/01/10 13:51:46;;;;;;;32.88;19.63;;;9.70;12.60;;;;;;5000986;28;20115;-83
2024/01/10 13:54:36;;;;;;;29.77;18.85;;;9.90;9.00;;;;;;4992891;28;20034;-80
2024/01/10 13:57:23;;;;;;;29.63;18.17;;;10.00;10.60;;;;;;4965905;28;20050;-78
2024/01/10 14:00:14;;;;;;;32.85;20.08;;;9.80;11.00;;;;;;4987793;28;20042;-75
2024/01/10 14:03:05;;;;;;;32.95;21.17;;;8.90;9.00;;;;;;4983238;28;20100;-78
2024/01/10 14:05:52;;;;;;;30.52;19.08;;;8.20;9.40;;;;;;4994726;28;20074;-76
2024/01/10 14:08:43;;;;;;;28.77;17.88;;;8.10;8.50;;;;;;4983009;28;20054;-79
2024/01/10 14:11:35;;;;;;;33.42;19.48;;;7.60;10.80;;;;;;4997687;28;20022;-74
2024/01/10 14:14:22;;;;;;;38.55;22.30;;;7.70;9.70;;;;;;5004423;28;20046;-79
2024/01/10 14:17:12;;;;;;;35.92;21.02;;;7.50;10.70;;;;;;4995642;28;20398;-77
2024/01/10 14:20:00;;;;;;;30.73;18.42;;;7.40;11.30;;;;;;4975896;28;20129;-77
2024/01/10 14:22:50;;;;;;;29.73;17.85;;;7.00;10.00;;;;;;4971708;28;20190;-77
2024/01/10 14:25:37;;;;;;;28.20;16.40;;;6.90;12.80;;;;;;4975951;28;20074;-77
2024/01/10 14:28:25;;;;;;;29.60;17.33;;;7.10;14.90;;;;;;4969857;28;20755;-76
2024/01/10 14:31:13;;;;;;;31.67;18.88;;;7.40;13.40;;;;;;4974913;28;20526;-78